createdAt,value
2019-04-26T09:03:12.039Z,26.10
2019-04-26T09:05:39.308Z,20.20
2019-04-26T09:08:05.967Z,27.00
2019-04-26T09:10:32.928Z,30.57
2019-04-26T09:12:59.710Z,24.00
2019-04-26T09:15:26.645Z,37.17
2019-04-26T09:17:54.638Z,34.00
2019-04-26T09:20:28.752Z,20.77
2019-04-26T09:22:49.906Z,31.93
2019-04-26T09:25:16.772Z,39.70
2019-04-26T09:27:43.551Z,32.03
2019-04-26T09:30:10.407Z,24.07
2019-04-26T09:32:37.254Z,20.10
2019-04-26T09:35:03.927Z,21.90
2019-04-26T09:37:30.588Z,28.83
2019-04-26T09:40:09.338Z,32.57
2019-04-26T09:42:25.945Z,28.97
2019-04-26T09:44:52.600Z,27.47
2019-04-26T09:47:19.366Z,27.93
2019-04-26T09:49:46.228Z,20.60
2019-04-26T09:52:13.097Z,20.50
2019-04-26T09:54:39.777Z,23.33
2019-04-26T09:57:06.834Z,21.10
2019-04-26T09:59:36.353Z,24.30
2019-04-26T10:02:01.899Z,27.43
2019-04-26T10:04:28.643Z,20.67
2019-04-26T10:06:55.310Z,13.67
2019-04-26T10:09:22.811Z,24.00
2019-04-26T10:11:49.666Z,23.70
2019-04-26T10:14:16.667Z,32.50
2019-04-26T10:16:43.388Z,26.60
2019-04-26T10:19:10.253Z,24.33
2019-04-26T10:21:37.114Z,23.43
2019-04-26T10:24:03.778Z,24.17
2019-04-26T10:26:30.551Z,21.53
2019-04-26T10:28:57.512Z,26.37
2019-04-26T10:31:24.177Z,24.73
2019-04-26T10:33:51.024Z,25.93
2019-04-26T10:36:17.733Z,24.20
2019-04-26T10:38:44.564Z,28.27
2019-04-26T10:41:11.419Z,21.93
2019-04-26T10:43:38.344Z,34.80
2019-04-26T10:46:05.166Z,30.97
2019-04-26T10:48:32.027Z,19.53
2019-04-26T10:50:58.985Z,32.40
2019-04-26T10:53:29.959Z,24.43
2019-04-26T10:55:54.141Z,31.40
2019-04-26T10:58:20.913Z,20.00
2019-04-26T11:00:48.338Z,34.57
2019-04-26T11:03:15.973Z,27.30
2019-04-26T11:05:42.734Z,23.87
2019-04-26T11:08:09.498Z,28.30
2019-04-26T11:10:47.694Z,25.87
2019-04-26T11:13:04.556Z,24.77
2019-04-26T11:15:32.712Z,21.63
2019-04-26T11:17:59.814Z,29.07
2019-04-26T11:20:26.487Z,32.10
2019-04-26T11:22:53.285Z,17.20
2019-04-26T11:25:19.997Z,22.40
2019-04-26T11:27:48.524Z,32.00
2019-04-26T11:30:20.603Z,25.07
2019-04-26T11:32:45.775Z,25.03
2019-04-26T11:35:12.391Z,22.33
2019-04-26T11:37:39.042Z,28.00
2019-04-26T11:40:05.933Z,15.07
2019-04-26T11:42:32.856Z,27.07
2019-04-26T11:45:06.046Z,26.67
2019-04-26T11:47:28.014Z,25.13
2019-04-26T11:49:54.701Z,21.03
2019-04-26T11:52:21.336Z,24.03
2019-04-26T11:54:51.184Z,22.50
2019-04-26T11:57:16.503Z,28.20
2019-04-26T11:59:43.367Z,22.70
2019-04-26T12:02:12.386Z,22.67
2019-04-26T12:04:38.422Z,24.10
2019-04-26T12:07:05.191Z,32.20
2019-04-26T12:09:32.069Z,29.20
2019-04-26T12:12:04.681Z,27.53
2019-04-26T12:14:29.439Z,29.40
2019-04-26T12:16:59.720Z,31.47
2019-04-26T12:19:24.108Z,26.23
2019-04-26T12:21:50.755Z,23.43
2019-04-26T12:24:17.445Z,21.63
2019-04-26T12:26:46.321Z,21.67
2019-04-26T12:29:14.747Z,22.33
2019-04-26T12:31:40.993Z,18.03
2019-04-26T12:34:07.953Z,22.13
2019-04-26T12:36:34.974Z,23.50
2019-04-26T12:39:02.208Z,13.60
2019-04-26T12:41:39.901Z,24.20
2019-04-26T12:43:59.616Z,25.80
2019-04-26T12:46:28.608Z,31.20
2019-04-26T12:48:55.398Z,30.07
2019-04-26T12:51:22.217Z,27.43
2019-04-26T12:53:49.155Z,13.07
2019-04-26T12:56:16.045Z,29.57
2019-04-26T12:58:45.611Z,28.47
2019-04-26T13:01:12.197Z,19.70
2019-04-26T13:03:40.098Z,24.03
2019-04-26T13:06:07.012Z,18.33
2019-04-26T13:08:33.798Z,22.03
2019-04-26T13:11:00.651Z,17.13
2019-04-26T13:13:27.479Z,23.00
2019-04-26T13:15:54.287Z,26.60
2019-04-26T13:18:21.039Z,27.63
2019-04-26T13:20:47.919Z,18.60
2019-04-26T13:23:14.680Z,20.43
2019-04-26T13:25:41.544Z,32.97
2019-04-26T13:28:08.296Z,20.50
2019-04-26T13:30:35.078Z,27.13
2019-04-26T13:33:01.822Z,20.57
2019-04-26T13:35:28.593Z,24.20
2019-04-26T13:37:55.340Z,20.20
2019-04-26T13:40:25.711Z,22.87
2019-04-26T13:42:51.466Z,14.93
2019-04-26T13:45:18.606Z,13.93
2019-04-26T13:47:45.356Z,19.50
2019-04-26T13:50:12.148Z,13.53
2019-04-26T13:52:39.000Z,18.93
2019-04-26T13:55:05.790Z,16.73
2019-04-26T13:57:32.680Z,12.80
2019-04-26T14:00:02.514Z,15.00
2019-04-26T14:02:28.089Z,16.63
2019-04-26T14:04:54.857Z,9.87
2019-04-26T14:07:24.427Z,20.07
2019-04-26T14:09:50.439Z,7.90
2019-04-26T14:12:19.130Z,18.40
2019-04-26T14:14:46.189Z,13.00
2019-04-26T14:17:12.762Z,16.13
2019-04-26T14:19:39.619Z,18.43
2019-04-26T14:22:07.180Z,19.90
2019-04-26T14:24:34.683Z,18.27
2019-04-26T14:27:01.461Z,16.37
2019-04-26T14:29:31.896Z,30.33
2019-04-26T14:31:57.060Z,18.20
2019-04-26T14:34:24.087Z,16.70
2019-04-26T14:36:50.946Z,14.87
2019-04-26T14:39:20.947Z,15.17
2019-04-26T14:41:46.327Z,15.77
2019-04-26T14:44:15.779Z,15.43
2019-04-26T14:46:48.542Z,22.40
2019-04-26T14:49:10.191Z,17.63
2019-04-26T14:51:36.948Z,15.33
2019-04-26T14:54:07.276Z,22.33
2019-04-26T14:56:31.997Z,16.90
2019-04-26T14:59:01.712Z,12.33
2019-04-26T15:01:28.490Z,17.80
2019-04-26T15:03:58.297Z,17.27
2019-04-26T15:06:24.574Z,15.20
2019-04-26T15:08:52.968Z,11.80
2019-04-26T15:11:22.869Z,15.10
2019-04-26T15:13:48.234Z,21.20
2019-04-26T15:16:15.008Z,21.90
2019-04-26T15:18:42.622Z,15.67
2019-04-26T15:21:09.950Z,17.43
2019-04-26T15:23:36.624Z,19.20
2019-04-26T15:26:03.499Z,9.77
2019-04-26T15:28:30.258Z,14.47
2019-04-26T15:30:57.000Z,19.20
2019-04-26T15:33:23.678Z,8.73
2019-04-26T15:35:52.044Z,10.60
2019-04-26T15:38:19.040Z,10.87
2019-04-26T15:40:45.685Z,10.03
2019-04-26T15:43:14.860Z,19.17
2019-04-26T15:45:42.307Z,9.10
2019-04-26T15:48:09.352Z,25.43
2019-04-26T15:50:36.163Z,24.53
2019-04-26T15:53:06.725Z,12.30
2019-04-26T15:55:33.765Z,20.43
2019-04-26T15:58:02.601Z,21.83
2019-04-26T16:00:31.963Z,20.23
2019-04-26T16:02:58.568Z,25.80
2019-04-26T16:05:29.495Z,21.40
2019-04-26T16:07:57.408Z,15.40
2019-04-26T16:10:25.711Z,16.87
2019-04-26T16:12:52.363Z,12.63
2019-04-26T16:15:19.294Z,16.63
2019-04-26T16:17:45.945Z,10.60
2019-04-26T16:20:13.646Z,11.57
2019-04-26T16:22:40.761Z,18.57
2019-04-26T16:25:07.686Z,9.27
2019-04-26T16:27:34.707Z,11.83
2019-04-26T16:30:02.968Z,12.77
2019-04-26T16:32:29.955Z,8.80
2019-04-26T16:34:56.996Z,9.23
2019-04-26T16:37:23.996Z,7.30
2019-04-26T16:39:50.795Z,5.57
2019-04-26T16:42:17.468Z,8.30
2019-04-26T16:44:45.067Z,6.30
2019-04-26T16:47:13.250Z,9.13
2019-04-26T16:49:46.190Z,12.87
2019-04-26T16:52:14.014Z,14.27
2019-04-26T16:54:40.171Z,8.97
2019-04-26T16:57:11.385Z,13.30
2019-04-26T16:59:37.171Z,21.33
2019-04-26T17:02:04.029Z,11.40
2019-04-26T17:04:32.400Z,12.47
2019-04-26T17:07:02.022Z,8.60
2019-04-26T17:09:29.700Z,8.10
2019-04-26T17:11:56.303Z,9.07
2019-04-26T17:14:24.555Z,10.67
2019-04-26T17:16:53.271Z,10.70
2019-04-26T17:19:20.183Z,8.63
2019-04-26T17:21:46.831Z,8.03
2019-04-26T17:24:13.488Z,14.30
2019-04-26T17:26:40.453Z,6.10
2019-04-26T17:29:07.233Z,14.23
2019-04-26T17:31:34.088Z,4.07
2019-04-26T17:34:00.742Z,2.97
2019-04-26T17:36:27.506Z,7.53
2019-04-26T17:38:54.487Z,1.87
2019-04-26T17:41:21.248Z,1.53
2019-04-26T17:43:52.087Z,1.70
2019-04-26T17:46:18.261Z,2.37
2019-04-26T17:48:49.158Z,5.12
2019-04-26T17:51:18.983Z,4.12
2019-04-26T17:53:43.999Z,3.45
2019-04-26T17:56:11.087Z,2.40
2019-04-26T17:58:49.864Z,3.05
2019-04-26T18:01:07.315Z,2.95
2019-04-26T18:03:37.091Z,2.15
2019-04-26T18:06:04.007Z,2.52
2019-04-26T18:08:37.034Z,0.60
2019-04-26T18:11:00.760Z,0.50
2019-04-26T18:13:27.680Z,0.40
2019-04-26T18:15:54.572Z,1.27
2019-04-26T18:18:21.287Z,7.22
2019-04-26T18:20:47.871Z,0.50
2019-04-26T18:23:18.431Z,0.65
2019-04-26T18:25:45.102Z,3.00
2019-04-26T18:28:13.238Z,2.15
2019-04-26T18:30:40.407Z,2.30
2019-04-26T18:33:08.513Z,2.58
2019-04-26T18:35:35.483Z,1.47
2019-04-26T18:38:03.695Z,1.45
2019-04-26T18:40:35.348Z,1.65
2019-04-26T18:42:59.315Z,0.80
2019-04-26T18:45:30.179Z,1.30
2019-04-26T18:48:01.111Z,1.52
2019-04-26T18:50:28.467Z,1.15
2019-04-26T18:52:56.519Z,3.60
2019-04-26T18:55:29.012Z,1.40
2019-04-26T18:57:55.200Z,0.70
2019-04-26T19:00:21.601Z,0.85
2019-04-26T19:02:48.416Z,1.37
2019-04-26T19:05:19.555Z,1.00
2019-04-26T19:07:46.202Z,1.65
2019-04-26T19:10:13.476Z,1.85
2019-04-26T19:12:41.234Z,3.25
2019-04-26T19:15:08.629Z,1.80
2019-04-26T19:17:35.519Z,1.47
2019-04-26T19:20:02.432Z,2.72
2019-04-26T19:22:29.242Z,1.57
2019-04-26T19:24:57.587Z,1.57
2019-04-26T19:27:26.482Z,4.53
2019-04-26T19:29:53.205Z,1.85
2019-04-26T19:32:21.412Z,0.98
2019-04-26T19:34:48.566Z,1.20
2019-04-26T19:37:15.336Z,1.05
2019-04-26T19:39:42.711Z,2.35
2019-04-26T19:42:09.585Z,0.88
2019-04-26T19:44:36.541Z,3.33
2019-04-26T19:47:06.517Z,1.15
2019-04-26T19:49:33.463Z,2.35
2019-04-26T19:52:03.561Z,1.80
2019-04-26T19:54:35.672Z,0.70
2019-04-26T19:57:01.085Z,1.67
2019-04-26T19:59:27.531Z,2.15
2019-04-26T20:01:56.741Z,1.20
2019-04-26T20:04:24.539Z,1.25
2019-04-26T20:06:54.023Z,4.10
2019-04-26T20:09:22.886Z,1.60
2019-04-26T20:11:51.342Z,1.50
2019-04-26T20:14:18.981Z,1.35
2019-04-26T20:16:45.022Z,0.75
2019-04-26T20:19:15.119Z,0.60
2019-04-26T20:21:41.407Z,0.70
2019-04-26T20:24:08.263Z,0.65
2019-04-26T20:26:37.474Z,0.50
2019-04-26T20:29:06.157Z,2.02
2019-04-26T20:31:32.122Z,0.90
2019-04-26T20:33:58.823Z,1.42
2019-04-26T20:36:25.642Z,0.90
2019-04-26T20:38:52.324Z,1.40
2019-04-26T20:41:19.010Z,1.60
2019-04-26T20:43:52.379Z,2.58
2019-04-26T20:46:15.857Z,1.72
2019-04-26T20:48:42.881Z,2.55
2019-04-26T20:51:10.969Z,3.25
2019-04-26T20:53:41.075Z,1.00
2019-04-26T20:56:09.861Z,3.25
2019-04-26T20:58:37.535Z,1.72
2019-04-26T21:01:06.443Z,0.95
